createdAt,value
2022-11-25T00:01:42.022Z,67.78
2022-11-25T00:03:44.722Z,90.43
2022-11-25T00:05:46.137Z,81.40
2022-11-25T00:07:47.629Z,79.70
2022-11-25T00:09:49.144Z,90.25
2022-11-25T00:11:50.556Z,85.90
2022-11-25T00:13:52.635Z,79.75
2022-11-25T00:15:54.091Z,64.65
2022-11-25T00:17:55.541Z,56.90
2022-11-25T00:19:57.017Z,54.03
2022-11-25T00:21:58.508Z,55.70
2022-11-25T00:24:02.430Z,57.97
2022-11-25T00:26:12.391Z,58.50
2022-11-25T00:28:13.861Z,58.47
2022-11-25T00:30:15.448Z,62.88
2022-11-25T00:32:16.922Z,62.22
2022-11-25T00:34:18.380Z,60.60
2022-11-25T00:36:25.508Z,61.50
2022-11-25T00:38:27.029Z,61.85
2022-11-25T00:40:28.523Z,60.05
2022-11-25T00:43:01.945Z,61.90
2022-11-25T00:45:03.779Z,58.50
2022-11-25T00:47:11.398Z,61.17
2022-11-25T00:49:12.852Z,63.92
2022-11-25T00:51:14.277Z,64.85
2022-11-25T00:53:15.698Z,62.72
2022-11-25T00:55:17.115Z,64.75
2022-11-25T00:57:20.924Z,69.68
2022-11-25T00:59:22.422Z,65.55
2022-11-25T01:01:24.880Z,65.32
2022-11-25T01:03:26.350Z,63.42
2022-11-25T01:05:27.773Z,62.95
2022-11-25T01:07:29.482Z,60.03
2022-11-25T01:09:31.472Z,63.75
2022-11-25T01:11:33.285Z,63.05
2022-11-25T01:13:35.123Z,62.70
2022-11-25T01:15:37.810Z,69.57
2022-11-25T01:17:39.265Z,72.78
2022-11-25T01:19:41.924Z,81.18
2022-11-25T01:21:43.682Z,69.85
2022-11-25T01:23:46.287Z,65.22
2022-11-25T01:25:47.729Z,71.70
2022-11-25T01:27:49.178Z,69.65
2022-11-25T01:29:50.730Z,64.55
2022-11-25T01:31:55.101Z,68.28
2022-11-25T01:34:00.021Z,61.63
2022-11-25T01:36:10.233Z,63.50
2022-11-25T01:38:11.737Z,61.53
2022-11-25T01:40:13.264Z,66.28
2022-11-25T01:42:14.729Z,63.05
2022-11-25T01:44:29.748Z,61.58
2022-11-25T01:46:46.818Z,63.75
2022-11-25T01:48:51.131Z,62.42
2022-11-25T01:50:52.938Z,64.43
2022-11-25T01:52:56.526Z,60.85
2022-11-25T01:55:06.818Z,60.60
2022-11-25T01:57:14.121Z,66.63
2022-11-25T01:59:16.155Z,66.15
2022-11-25T02:01:18.141Z,65.10
2022-11-25T02:03:24.964Z,64.90
2022-11-25T02:05:35.461Z,63.22
2022-11-25T02:07:43.580Z,68.93
2022-11-25T02:09:45.864Z,71.43
2022-11-25T02:11:48.076Z,78.35
2022-11-25T02:13:51.316Z,78.53
2022-11-25T02:15:52.771Z,77.28
2022-11-25T02:17:54.365Z,74.32
2022-11-25T02:20:04.585Z,71.65
2022-11-25T02:22:13.248Z,59.13
2022-11-25T02:24:37.971Z,65.77
2022-11-25T02:26:39.671Z,68.55
2022-11-25T02:28:41.647Z,72.82
2022-11-25T02:30:44.568Z,72.97
2022-11-25T02:32:48.132Z,70.25
2022-11-25T02:34:50.304Z,70.38
2022-11-25T02:36:52.796Z,69.30
2022-11-25T02:39:00.595Z,60.70
2022-11-25T02:41:22.787Z,60.75
2022-11-25T02:43:25.033Z,58.15
2022-11-25T02:45:33.695Z,59.88
2022-11-25T02:47:35.156Z,55.50
2022-11-25T02:49:36.616Z,56.92
2022-11-25T02:51:41.317Z,60.20
2022-11-25T02:53:43.474Z,57.10
2022-11-25T02:55:45.278Z,57.25
2022-11-25T02:57:46.729Z,57.88
2022-11-25T02:59:48.192Z,59.05
2022-11-25T03:01:49.807Z,56.75
2022-11-25T03:03:51.311Z,57.90
2022-11-25T03:05:52.832Z,54.15
2022-11-25T03:07:54.324Z,56.60
2022-11-25T03:09:55.785Z,56.05
2022-11-25T03:12:15.988Z,55.20
2022-11-25T03:14:17.537Z,53.78
2022-11-25T03:16:19.024Z,53.20
2022-11-25T03:18:20.583Z,54.83
2022-11-25T03:20:22.264Z,54.90
2022-11-25T03:22:23.760Z,57.72
2022-11-25T03:24:25.285Z,57.10
2022-11-25T03:26:26.716Z,55.60
2022-11-25T03:28:28.124Z,54.53
2022-11-25T03:30:30.897Z,53.15
2022-11-25T03:32:32.377Z,53.45
2022-11-25T03:34:34.058Z,52.13
2022-11-25T03:36:35.806Z,56.20
2022-11-25T03:38:37.355Z,58.28
2022-11-25T03:40:38.817Z,59.65
2022-11-25T03:42:40.956Z,61.30
2022-11-25T03:44:42.491Z,57.75
2022-11-25T03:46:43.940Z,56.10
2022-11-25T03:48:45.376Z,59.55
2022-11-25T03:50:48.443Z,61.92
2022-11-25T03:52:49.973Z,65.07
2022-11-25T03:54:51.690Z,60.17
2022-11-25T03:56:53.206Z,61.78
2022-11-25T03:58:54.689Z,63.35
2022-11-25T04:01:00.792Z,61.38
2022-11-25T04:03:02.502Z,67.38
2022-11-25T04:05:05.480Z,68.13
2022-11-25T04:07:07.198Z,66.88
2022-11-25T04:09:09.891Z,63.30
2022-11-25T04:11:11.410Z,62.42
2022-11-25T04:13:13.086Z,57.58
2022-11-25T04:15:16.365Z,59.40
2022-11-25T04:17:17.796Z,58.13
2022-11-25T04:19:19.275Z,62.63
2022-11-25T04:21:20.696Z,58.80
2022-11-25T04:23:22.200Z,61.00
2022-11-25T04:25:23.718Z,59.33
2022-11-25T04:27:25.143Z,57.67
2022-11-25T04:29:26.556Z,57.90
2022-11-25T04:31:28.041Z,58.38
2022-11-25T04:33:29.458Z,58.47
2022-11-25T04:35:30.893Z,58.10
2022-11-25T04:37:32.337Z,57.95
2022-11-25T04:39:33.856Z,58.13
2022-11-25T04:41:35.281Z,62.35
2022-11-25T04:43:36.739Z,61.90
2022-11-25T04:46:06.499Z,62.45
2022-11-25T04:47:59.681Z,63.42
2022-11-25T04:50:01.361Z,65.20
2022-11-25T04:52:02.846Z,64.45
2022-11-25T04:54:04.367Z,62.05
2022-11-25T04:56:06.062Z,63.60
2022-11-25T04:58:07.525Z,63.60
2022-11-25T05:00:09.607Z,63.75
2022-11-25T05:02:11.041Z,59.58
2022-11-25T05:04:12.552Z,56.33
2022-11-25T05:06:13.986Z,55.58
2022-11-25T05:08:15.535Z,57.72
2022-11-25T05:10:17.083Z,62.90
2022-11-25T05:12:24.696Z,64.35
2022-11-25T05:14:26.227Z,60.88
2022-11-25T05:16:27.746Z,59.25
2022-11-25T05:18:29.196Z,58.78
2022-11-25T05:20:30.617Z,59.28
2022-11-25T05:22:33.483Z,64.35
2022-11-25T05:24:35.133Z,67.82
2022-11-25T05:26:36.869Z,61.35
2022-11-25T05:28:38.323Z,64.38
2022-11-25T05:30:39.869Z,70.25
2022-11-25T05:32:41.438Z,97.28
2022-11-25T05:34:43.406Z,110.20
2022-11-25T05:36:44.958Z,88.70
2022-11-25T05:38:46.455Z,87.15
2022-11-25T05:40:47.890Z,75.25
2022-11-25T05:42:49.378Z,77.72
2022-11-25T05:44:50.823Z,74.53
2022-11-25T05:46:52.319Z,73.88
2022-11-25T05:48:55.705Z,76.68
2022-11-25T05:51:00.841Z,80.75
2022-11-25T05:53:02.315Z,78.18
2022-11-25T05:55:03.914Z,84.18
2022-11-25T05:57:05.468Z,89.63
2022-11-25T05:59:07.025Z,98.55
2022-11-25T06:01:10.830Z,96.30
2022-11-25T06:03:12.427Z,95.40
2022-11-25T06:05:14.113Z,93.10
2022-11-25T06:07:15.956Z,83.63
2022-11-25T06:09:17.470Z,72.60
2022-11-25T06:11:19.029Z,88.30
2022-11-25T06:13:21.143Z,98.35
2022-11-25T06:15:22.603Z,101.88
2022-11-25T06:17:24.069Z,84.15
2022-11-25T06:19:25.645Z,86.00
2022-11-25T06:21:27.065Z,79.63
2022-11-25T06:23:28.551Z,75.90
2022-11-25T06:25:30.645Z,78.35
2022-11-25T06:27:56.902Z,79.05
2022-11-25T06:29:53.580Z,65.05
2022-11-25T06:31:55.000Z,65.20
2022-11-25T06:33:56.670Z,64.35
2022-11-25T06:35:58.092Z,62.53
2022-11-25T06:37:59.695Z,68.25
2022-11-25T06:40:01.487Z,62.97
2022-11-25T06:42:02.916Z,61.47
2022-11-25T06:44:04.523Z,63.45
2022-11-25T06:46:08.265Z,63.45
2022-11-25T06:48:09.814Z,79.18
2022-11-25T06:50:11.349Z,83.07
2022-11-25T06:52:12.817Z,66.47
2022-11-25T06:54:14.295Z,76.40
2022-11-25T06:56:18.866Z,68.18
2022-11-25T06:58:35.339Z,71.60
2022-11-25T07:00:37.844Z,67.13
2022-11-25T07:02:44.034Z,59.60
2022-11-25T07:04:48.277Z,59.33
2022-11-25T07:06:50.528Z,67.15
2022-11-25T07:08:52.375Z,60.13
2022-11-25T07:10:54.161Z,55.15
2022-11-25T07:12:55.590Z,54.67
2022-11-25T07:14:57.064Z,58.38
2022-11-25T07:16:58.578Z,53.78
2022-11-25T07:19:02.113Z,51.97
2022-11-25T07:21:15.326Z,51.45
2022-11-25T07:23:17.299Z,65.82
2022-11-25T07:25:18.796Z,59.40
2022-11-25T07:27:20.365Z,60.83
2022-11-25T07:31:45.226Z,85.55
2022-11-25T07:33:47.201Z,111.43
2022-11-25T07:35:48.663Z,116.63
2022-11-25T07:37:50.367Z,83.60
2022-11-25T07:39:51.819Z,79.65
2022-11-25T07:41:54.049Z,82.28
2022-11-25T07:44:01.897Z,75.95
2022-11-25T07:46:28.952Z,71.70
2022-11-25T07:48:31.781Z,99.22
2022-11-25T07:50:33.219Z,120.35
2022-11-25T07:52:37.073Z,110.93
2022-11-25T07:54:38.504Z,111.93
2022-11-25T07:56:41.724Z,71.20
2022-11-25T07:58:46.076Z,70.78
2022-11-25T08:00:47.758Z,65.45
2022-11-25T08:02:49.278Z,71.65
2022-11-25T08:04:50.845Z,98.78
2022-11-25T08:06:53.231Z,90.45
2022-11-25T08:08:56.385Z,91.50
2022-11-25T08:10:57.898Z,70.72
2022-11-25T08:12:59.396Z,60.17
2022-11-25T08:15:00.916Z,51.22
2022-11-25T08:17:04.585Z,50.45
2022-11-25T08:19:11.479Z,51.28
2022-11-25T08:21:15.079Z,68.63
2022-11-25T08:23:16.515Z,90.18
2022-11-25T08:25:17.942Z,106.22
2022-11-25T08:27:19.395Z,184.70
2022-11-25T08:29:20.866Z,93.95
2022-11-25T08:31:27.942Z,68.60
2022-11-25T08:33:29.710Z,55.42
2022-11-25T08:35:31.710Z,45.70
2022-11-25T08:37:33.376Z,64.38
2022-11-25T08:41:56.379Z,162.57
2022-11-25T08:43:59.506Z,55.95
2022-11-25T08:46:00.969Z,47.33
2022-11-25T08:48:02.427Z,45.80
2022-11-25T08:50:07.537Z,45.58
2022-11-25T08:52:10.017Z,47.40
2022-11-25T08:54:11.622Z,70.70
2022-11-25T08:56:14.816Z,53.00
2022-11-25T08:58:16.603Z,55.05
2022-11-25T09:00:18.423Z,54.97
2022-11-25T09:02:19.949Z,48.13
2022-11-25T09:04:21.475Z,41.47
2022-11-25T09:06:25.293Z,37.55
2022-11-25T09:08:27.620Z,35.53
2022-11-25T09:10:29.654Z,39.22
2022-11-25T09:12:31.287Z,38.25
2022-11-25T09:14:32.973Z,49.85
2022-11-25T09:16:34.567Z,50.85
2022-11-25T09:18:37.212Z,46.70
2022-11-25T09:20:40.569Z,46.10
2022-11-25T09:22:42.281Z,59.03
2022-11-25T09:24:45.336Z,47.63
2022-11-25T09:26:46.827Z,57.90
2022-11-25T09:28:48.310Z,62.85
2022-11-25T09:30:50.209Z,55.65
2022-11-25T09:32:54.010Z,59.10
2022-11-25T09:34:55.434Z,52.22
2022-11-25T09:36:56.833Z,107.07
2022-11-25T09:38:58.267Z,49.05
2022-11-25T09:41:13.082Z,72.10
2022-11-25T09:43:45.794Z,65.22
2022-11-25T09:46:15.419Z,60.40
2022-11-25T09:48:35.447Z,71.32
2022-11-25T09:50:55.201Z,39.03
2022-11-25T09:55:30.758Z,45.33
2022-11-25T09:58:06.068Z,59.15
2022-11-25T10:00:14.381Z,37.85
2022-11-25T10:02:28.291Z,54.25
2022-11-25T10:04:40.472Z,83.95
2022-11-25T10:07:03.403Z,42.42
2022-11-25T10:09:13.265Z,48.08
2022-11-25T10:13:27.575Z,42.33
2022-11-25T10:15:42.787Z,48.03
2022-11-25T10:17:50.046Z,35.97
2022-11-25T10:20:27.160Z,32.85
2022-11-25T10:22:37.674Z,29.13
2022-11-25T10:24:41.363Z,27.00
2022-11-25T10:26:46.192Z,29.75
2022-11-25T10:29:13.596Z,30.88
2022-11-25T10:31:19.049Z,26.20
2022-11-25T10:33:39.695Z,29.05
2022-11-25T10:35:47.412Z,34.17
2022-11-25T10:37:55.243Z,36.58
2022-11-25T10:39:56.823Z,24.08
2022-11-25T10:42:08.393Z,21.13
2022-11-25T10:44:28.744Z,23.23
2022-11-25T10:47:12.178Z,30.50
2022-11-25T10:49:18.862Z,35.03
2022-11-25T10:51:26.356Z,26.85
2022-11-25T10:53:30.139Z,30.85
2022-11-25T10:55:33.812Z,57.22
2022-11-25T10:57:35.530Z,53.47
2022-11-25T10:59:39.823Z,67.00
2022-11-25T11:01:41.371Z,43.85
2022-11-25T11:03:52.389Z,75.10
2022-11-25T11:05:55.003Z,55.67
2022-11-25T11:08:28.909Z,69.40
2022-11-25T11:10:30.567Z,85.18
2022-11-25T11:12:32.016Z,84.68
2022-11-25T11:14:34.863Z,38.05
2022-11-25T11:16:38.839Z,38.72
2022-11-25T11:18:41.837Z,139.88
2022-11-25T11:20:48.745Z,98.25
2022-11-25T11:23:12.369Z,68.90
2022-11-25T11:25:27.080Z,43.08
2022-11-25T11:27:28.477Z,57.38
2022-11-25T11:29:30.078Z,44.63
2022-11-25T11:31:35.248Z,43.28
2022-11-25T11:34:05.958Z,39.47
2022-11-25T11:36:33.491Z,153.75
2022-11-25T11:38:56.710Z,43.55
2022-11-25T11:41:17.029Z,34.80
2022-11-25T11:43:33.744Z,26.55
2022-11-25T11:45:59.754Z,47.08
2022-11-25T11:48:28.794Z,61.20
2022-11-25T11:50:48.635Z,35.45
2022-11-25T11:55:28.418Z,36.10
2022-11-25T11:57:29.866Z,39.75
2022-11-25T11:59:49.149Z,53.42
2022-11-25T12:02:15.804Z,95.35
2022-11-25T12:04:27.226Z,43.22
2022-11-25T12:06:34.277Z,61.35
2022-11-25T12:08:50.507Z,65.35
2022-11-25T12:10:56.655Z,48.00
2022-11-25T12:13:19.760Z,51.25
2022-11-25T12:15:33.014Z,46.75
2022-11-25T12:17:42.719Z,56.83
2022-11-25T12:19:53.105Z,43.78
2022-11-25T12:22:06.242Z,99.93
2022-11-25T12:24:24.102Z,31.58
2022-11-25T12:26:42.918Z,25.70
2022-11-25T12:28:53.349Z,78.72
2022-11-25T12:31:30.382Z,37.15
2022-11-25T12:33:46.567Z,30.95
2022-11-25T12:36:10.282Z,27.13
2022-11-25T12:38:24.985Z,25.92
2022-11-25T12:40:32.201Z,27.48
2022-11-25T12:42:37.007Z,35.65
2022-11-25T12:45:00.604Z,34.25
2022-11-25T12:47:02.284Z,38.60
2022-11-25T12:49:06.245Z,37.42
2022-11-25T12:51:20.078Z,39.60
2022-11-25T12:53:30.358Z,34.92
2022-11-25T12:55:33.926Z,39.05
2022-11-25T12:57:49.240Z,42.15
2022-11-25T13:00:39.773Z,49.10
2022-11-25T13:02:52.325Z,47.92
2022-11-25T13:05:39.619Z,36.75
2022-11-25T13:07:53.507Z,37.85
2022-11-25T13:10:14.870Z,49.97
2022-11-25T13:12:45.760Z,50.75
2022-11-25T13:15:16.027Z,40.15
2022-11-25T13:17:18.906Z,63.83
2022-11-25T13:19:21.377Z,62.45
2022-11-25T13:21:27.529Z,56.22
2022-11-25T13:23:30.396Z,69.70
2022-11-25T13:25:32.729Z,78.50
2022-11-25T13:27:38.442Z,65.75
2022-11-25T13:29:39.829Z,55.60
2022-11-25T13:32:01.941Z,53.42
2022-11-25T13:34:18.818Z,56.20
2022-11-25T13:36:23.392Z,75.90
2022-11-25T13:38:30.713Z,114.68
2022-11-25T13:40:39.151Z,165.95
2022-11-25T13:42:44.520Z,83.93
2022-11-25T13:44:52.656Z,76.40
2022-11-25T13:46:56.649Z,88.25
2022-11-25T13:48:58.245Z,130.88
2022-11-25T13:51:22.472Z,231.95
2022-11-25T13:53:35.031Z,231.65
2022-11-25T13:55:40.168Z,107.72
2022-11-25T13:57:46.241Z,103.22
2022-11-25T13:59:47.621Z,82.85
2022-11-25T14:01:49.151Z,85.72
2022-11-25T14:03:54.642Z,137.18
2022-11-25T14:06:41.075Z,114.35
2022-11-25T14:08:46.789Z,114.15
2022-11-25T14:11:07.102Z,144.80
2022-11-25T14:13:24.797Z,189.32
2022-11-25T14:15:36.623Z,127.35
2022-11-25T14:17:47.231Z,127.07
2022-11-25T14:19:52.632Z,270.30
2022-11-25T14:22:10.491Z,142.82
2022-11-25T14:24:34.263Z,190.77
2022-11-25T14:26:49.912Z,134.60
2022-11-25T14:29:02.541Z,143.38
2022-11-25T14:31:09.218Z,110.93
2022-11-25T14:33:17.147Z,160.07
2022-11-25T14:35:42.065Z,101.32
2022-11-25T14:37:54.964Z,136.65
2022-11-25T14:42:09.335Z,223.88
2022-11-25T14:46:26.545Z,174.10
2022-11-25T14:48:27.998Z,165.52
2022-11-25T14:50:37.396Z,118.90
2022-11-25T14:52:43.737Z,128.90
2022-11-25T14:54:46.014Z,443.40
2022-11-25T14:56:48.395Z,383.50
2022-11-25T14:58:52.432Z,185.75
2022-11-25T15:01:18.210Z,172.50
2022-11-25T15:03:20.706Z,178.75
2022-11-25T15:05:26.275Z,148.23
2022-11-25T15:07:31.301Z,125.15
2022-11-25T15:09:38.990Z,112.93
2022-11-25T15:11:40.782Z,155.05
2022-11-25T15:13:43.884Z,197.65
2022-11-25T15:15:46.485Z,190.07
2022-11-25T15:17:48.057Z,284.80
2022-11-25T15:19:49.598Z,219.50
2022-11-25T15:24:31.975Z,173.70
2022-11-25T15:26:36.189Z,238.85
2022-11-25T15:28:39.010Z,421.67
2022-11-25T15:30:40.456Z,394.98
2022-11-25T15:32:41.951Z,336.63
2022-11-25T15:34:44.540Z,451.45
2022-11-25T15:36:49.803Z,282.23
2022-11-25T15:38:55.679Z,173.52
2022-11-25T15:40:57.757Z,218.05
2022-11-25T15:43:01.692Z,209.93
2022-11-25T15:45:10.358Z,207.25
2022-11-25T15:47:31.356Z,253.20
2022-11-25T15:49:35.771Z,748.53
2022-11-25T15:51:41.575Z,502.40
2022-11-25T15:53:46.867Z,165.60
2022-11-25T15:55:48.356Z,239.10
2022-11-25T15:57:51.904Z,253.77
2022-11-25T15:59:53.260Z,164.20
2022-11-25T16:01:54.745Z,115.47
2022-11-25T16:04:11.545Z,111.72
2022-11-25T16:06:23.527Z,184.48
2022-11-25T16:08:55.279Z,208.73
2022-11-25T16:11:11.111Z,128.45
2022-11-25T16:13:31.698Z,124.72
2022-11-25T16:15:55.098Z,103.90
2022-11-25T16:18:11.658Z,400.15
2022-11-25T16:20:19.773Z,187.45
2022-11-25T16:22:21.389Z,152.60
2022-11-25T16:24:45.841Z,181.20
2022-11-25T16:26:53.551Z,231.27
2022-11-25T16:28:58.257Z,160.70
2022-11-25T16:31:01.598Z,140.32
2022-11-25T16:33:09.134Z,89.20
2022-11-25T16:35:21.067Z,78.10
2022-11-25T16:37:22.959Z,113.65
2022-11-25T16:39:24.475Z,93.00
2022-11-25T16:41:26.968Z,96.90
2022-11-25T16:43:28.621Z,137.30
2022-11-25T16:45:30.517Z,173.20
2022-11-25T16:47:32.001Z,150.40
2022-11-25T16:49:33.494Z,209.55
2022-11-25T16:51:34.964Z,149.82
2022-11-25T16:53:36.415Z,96.10
2022-11-25T16:55:39.846Z,87.38
2022-11-25T16:57:42.395Z,88.93
2022-11-25T16:59:45.535Z,83.45
2022-11-25T17:01:47.404Z,82.85
2022-11-25T17:03:49.024Z,88.93
2022-11-25T17:05:51.201Z,98.97
2022-11-25T17:07:52.876Z,88.45
2022-11-25T17:09:54.492Z,86.65
2022-11-25T17:11:56.018Z,96.22
2022-11-25T17:14:02.762Z,145.25
2022-11-25T17:16:04.755Z,217.27
2022-11-25T17:18:07.990Z,147.55
2022-11-25T17:20:18.057Z,125.00
2022-11-25T17:22:22.996Z,111.13
2022-11-25T17:24:25.495Z,164.38
2022-11-25T17:26:36.446Z,158.02
2022-11-25T17:28:38.079Z,201.15
2022-11-25T17:30:40.212Z,210.25
2022-11-25T17:32:41.799Z,166.50
2022-11-25T17:34:43.348Z,198.70
2022-11-25T17:36:45.371Z,120.57
2022-11-25T17:38:46.957Z,138.98
2022-11-25T17:40:50.508Z,134.15
2022-11-25T17:42:52.370Z,108.30
2022-11-25T17:44:54.475Z,140.57
2022-11-25T17:46:57.559Z,119.38
2022-11-25T17:49:00.420Z,98.88
2022-11-25T17:51:06.040Z,100.13
2022-11-25T17:53:09.517Z,118.80
2022-11-25T17:55:11.475Z,138.50
2022-11-25T17:57:17.157Z,179.13
2022-11-25T17:59:26.476Z,233.70
2022-11-25T18:01:28.096Z,182.77
2022-11-25T18:03:29.615Z,222.40
2022-11-25T18:05:31.058Z,190.18
2022-11-25T18:07:32.591Z,288.23
2022-11-25T18:09:34.077Z,396.58
2022-11-25T18:11:35.605Z,185.23
2022-11-25T18:13:40.564Z,243.40
2022-11-25T18:15:42.065Z,198.52
2022-11-25T18:17:44.026Z,148.80
2022-11-25T18:19:51.322Z,144.25
2022-11-25T18:22:01.116Z,129.35
2022-11-25T18:24:02.775Z,108.07
2022-11-25T18:26:05.070Z,103.22
2022-11-25T18:28:07.245Z,96.30
2022-11-25T18:30:20.602Z,106.03
2022-11-25T18:32:23.462Z,106.55
2022-11-25T18:34:26.143Z,113.05
2022-11-25T18:36:27.654Z,123.40
2022-11-25T18:38:29.179Z,103.32
2022-11-25T18:40:31.424Z,147.15
2022-11-25T18:42:32.960Z,112.38
2022-11-25T18:44:43.628Z,105.47
2022-11-25T18:46:45.217Z,133.57
2022-11-25T18:48:46.629Z,130.18
2022-11-25T18:50:49.435Z,118.45
2022-11-25T18:52:51.663Z,127.72
2022-11-25T18:54:53.199Z,135.20
2022-11-25T18:56:54.708Z,133.02
2022-11-25T18:58:59.817Z,133.52
2022-11-25T19:01:06.363Z,160.38
2022-11-25T19:03:16.774Z,167.10
2022-11-25T19:05:30.889Z,222.38
2022-11-25T19:07:32.380Z,138.45
2022-11-25T19:09:34.698Z,134.60
2022-11-25T19:11:39.705Z,144.48
2022-11-25T19:13:41.336Z,146.25
2022-11-25T19:15:44.826Z,144.52
2022-11-25T19:17:49.351Z,135.60
2022-11-25T19:19:50.834Z,139.90
2022-11-25T19:21:52.291Z,134.05
2022-11-25T19:23:53.789Z,141.02
2022-11-25T19:26:00.520Z,146.77
2022-11-25T19:28:02.307Z,150.95
2022-11-25T19:30:04.177Z,159.82
2022-11-25T19:32:14.167Z,176.18
2022-11-25T19:34:32.299Z,160.30
2022-11-25T19:36:35.072Z,137.25
2022-11-25T19:38:36.627Z,158.68
2022-11-25T19:40:40.371Z,197.35
2022-11-25T19:42:42.094Z,252.77
2022-11-25T19:44:44.820Z,228.05
2022-11-25T19:47:13.934Z,158.40
2022-11-25T19:49:15.052Z,234.60
2022-11-25T19:51:23.325Z,199.23
2022-11-25T19:53:31.771Z,195.80
2022-11-25T19:55:35.129Z,188.98
2022-11-25T19:57:36.533Z,213.57
2022-11-25T19:59:38.014Z,196.23
2022-11-25T20:01:42.821Z,254.50
2022-11-25T20:03:47.918Z,347.52
2022-11-25T20:05:52.108Z,438.67
2022-11-25T20:07:53.621Z,536.60
2022-11-25T20:10:16.661Z,397.38
2022-11-25T20:12:21.569Z,344.33
2022-11-25T20:14:22.996Z,262.00
2022-11-25T20:16:31.236Z,340.02
2022-11-25T20:18:39.762Z,192.00
2022-11-25T20:20:42.280Z,203.20
2022-11-25T20:23:24.525Z,217.07
2022-11-25T20:25:26.904Z,189.73
2022-11-25T20:27:28.710Z,161.27
2022-11-25T20:29:30.797Z,149.90
2022-11-25T20:31:32.409Z,154.82
2022-11-25T20:33:33.862Z,143.70
2022-11-25T20:35:35.659Z,171.18
2022-11-25T20:37:50.724Z,232.73
2022-11-25T20:39:58.101Z,207.18
2022-11-25T20:41:59.602Z,189.38
2022-11-25T20:44:01.445Z,154.15
2022-11-25T20:46:03.490Z,195.02
2022-11-25T20:48:10.783Z,194.18
2022-11-25T20:50:14.050Z,261.45
2022-11-25T20:52:24.693Z,259.92
2022-11-25T20:54:26.251Z,255.07
2022-11-25T20:56:29.133Z,235.25
2022-11-25T20:58:32.083Z,194.27
2022-11-25T21:00:33.584Z,196.18
2022-11-25T21:02:35.141Z,179.00
2022-11-25T21:04:36.931Z,198.40
2022-11-25T21:06:41.150Z,414.15
2022-11-25T21:08:47.562Z,337.23
2022-11-25T21:10:51.309Z,322.73
2022-11-25T21:12:53.044Z,314.00
2022-11-25T21:14:54.508Z,302.33
2022-11-25T21:16:56.409Z,253.38
2022-11-25T21:18:57.989Z,253.18
2022-11-25T21:20:59.552Z,256.30
2022-11-25T21:23:05.774Z,333.88
2022-11-25T21:25:10.445Z,236.18
2022-11-25T21:27:15.018Z,162.18
2022-11-25T21:29:17.865Z,145.35
2022-11-25T21:31:24.747Z,143.65
2022-11-25T21:33:26.293Z,229.15
2022-11-25T21:35:34.662Z,240.60
2022-11-25T21:37:36.485Z,322.42
2022-11-25T21:39:38.049Z,202.38
2022-11-25T21:41:39.636Z,164.80
2022-11-25T21:43:46.797Z,171.48
2022-11-25T21:45:50.014Z,158.32
2022-11-25T21:47:51.585Z,206.68
2022-11-25T21:49:53.085Z,195.00
2022-11-25T21:51:54.669Z,170.60
2022-11-25T21:53:56.140Z,199.52
2022-11-25T21:55:57.634Z,191.60
2022-11-25T21:58:00.466Z,231.65
2022-11-25T22:00:02.049Z,184.45
2022-11-25T22:02:15.061Z,221.48
2022-11-25T22:04:19.631Z,276.33
2022-11-25T22:06:29.505Z,280.60
2022-11-25T22:08:30.972Z,240.48
2022-11-25T22:10:32.519Z,206.85
2022-11-25T22:12:38.171Z,162.93
2022-11-25T22:14:42.578Z,191.52
2022-11-25T22:16:44.219Z,276.23
2022-11-25T22:18:45.809Z,251.32
2022-11-25T22:20:53.145Z,172.80
2022-11-25T22:22:55.616Z,171.30
2022-11-25T22:24:57.094Z,188.00
2022-11-25T22:26:59.011Z,149.80
2022-11-25T22:29:02.304Z,161.07
2022-11-25T22:31:08.025Z,150.38
2022-11-25T22:33:10.424Z,152.68
2022-11-25T22:35:20.164Z,150.65
2022-11-25T22:39:25.763Z,261.08
2022-11-25T22:41:27.296Z,175.20
2022-11-25T22:43:36.232Z,150.35
2022-11-25T22:45:38.220Z,139.65
2022-11-25T22:47:42.034Z,141.25
2022-11-25T22:49:46.244Z,145.88
2022-11-25T22:51:47.752Z,141.30
2022-11-25T22:53:49.274Z,127.32
2022-11-25T22:55:51.030Z,125.75
2022-11-25T22:57:54.470Z,117.90
2022-11-25T22:59:55.948Z,165.15
2022-11-25T23:01:57.606Z,137.10
2022-11-25T23:03:59.256Z,130.95
2022-11-25T23:06:02.097Z,151.73
2022-11-25T23:08:16.282Z,133.93
2022-11-25T23:10:22.101Z,159.93
2022-11-25T23:12:23.575Z,142.85
2022-11-25T23:14:25.046Z,165.70
2022-11-25T23:16:26.562Z,131.63
2022-11-25T23:18:37.988Z,136.32
2022-11-25T23:20:40.358Z,144.48
2022-11-25T23:22:41.884Z,139.55
2022-11-25T23:24:45.570Z,141.32
2022-11-25T23:26:47.069Z,148.50
2022-11-25T23:28:48.712Z,160.45
2022-11-25T23:30:53.514Z,159.32
2022-11-25T23:32:54.993Z,149.02
2022-11-25T23:34:56.719Z,157.52
2022-11-25T23:36:59.075Z,178.45
2022-11-25T23:39:03.311Z,287.35
2022-11-25T23:41:05.143Z,234.43
2022-11-25T23:43:13.567Z,242.50
2022-11-25T23:45:18.024Z,136.45
2022-11-25T23:47:22.003Z,132.88
2022-11-25T23:49:37.114Z,138.95
2022-11-25T23:51:38.606Z,153.73
2022-11-25T23:53:41.108Z,165.18
2022-11-25T23:55:42.678Z,169.35
2022-11-25T23:57:47.372Z,176.07
2022-11-25T23:59:49.437Z,162.05
